createdAt,value
2019-05-06T00:00:09.312Z,90.00
2019-05-06T00:05:15.803Z,90.90
2019-05-06T00:10:29.561Z,91.30
2019-05-06T00:15:34.552Z,92.00
2019-05-06T00:20:39.213Z,91.40
2019-05-06T00:26:13.661Z,90.90
2019-05-06T00:31:20.087Z,90.50
2019-05-06T00:36:24.999Z,92.10
2019-05-06T00:41:35.894Z,91.50
2019-05-06T00:46:38.214Z,90.80
2019-05-06T00:51:44.134Z,92.50
2019-05-06T00:56:48.898Z,91.60
2019-05-06T01:01:53.970Z,92.50
2019-05-06T01:06:58.757Z,91.20
2019-05-06T01:12:05.297Z,91.70
2019-05-06T01:17:09.885Z,93.30
2019-05-06T01:22:15.545Z,92.70
2019-05-06T01:27:20.249Z,91.10
2019-05-06T01:32:25.965Z,90.10
2019-05-06T01:37:31.024Z,91.10
2019-05-06T01:42:49.017Z,90.40
2019-05-06T01:47:54.391Z,91.40
2019-05-06T01:52:59.128Z,92.30
2019-05-06T01:58:05.117Z,92.60
2019-05-06T02:03:10.121Z,90.50
2019-05-06T02:08:14.730Z,93.10
2019-05-06T02:13:19.435Z,94.30
2019-05-06T02:18:24.416Z,93.80
2019-05-06T02:23:31.044Z,93.00
2019-05-06T02:28:37.657Z,94.20
2019-05-06T02:34:01.356Z,94.30
2019-05-06T02:39:07.143Z,94.10
2019-05-06T02:44:13.766Z,94.80
2019-05-06T02:49:24.899Z,95.20
2019-05-06T02:54:29.475Z,94.90
2019-05-06T02:59:34.382Z,94.70
2019-05-06T03:04:39.051Z,95.00
2019-05-06T03:09:44.496Z,95.40
2019-05-06T03:14:49.517Z,95.20
2019-05-06T03:19:55.788Z,96.00
2019-05-06T03:25:07.632Z,95.70
2019-05-06T03:30:16.680Z,96.70
2019-05-06T03:35:33.948Z,96.60
2019-05-06T03:40:25.417Z,96.80
2019-05-06T03:45:38.193Z,96.90
2019-05-06T03:50:43.992Z,97.30
2019-05-06T03:55:50.205Z,97.10
2019-05-06T04:00:56.882Z,97.40
2019-05-06T04:06:04.493Z,96.80
2019-05-06T04:11:13.614Z,97.90
2019-05-06T04:16:24.592Z,98.20
2019-05-06T04:21:36.855Z,99.40
2019-05-06T04:26:48.193Z,98.50
2019-05-06T04:31:53.990Z,99.90
2019-05-06T04:36:59.214Z,99.90
2019-05-06T04:42:13.929Z,99.90
2019-05-06T04:47:25.266Z,99.90
2019-05-06T04:53:05.426Z,99.90
2019-05-06T04:58:13.482Z,99.90
2019-05-06T05:03:17.920Z,99.90
2019-05-06T05:08:36.625Z,99.90
2019-05-06T05:13:53.237Z,99.90
2019-05-06T05:19:03.730Z,99.90
2019-05-06T05:24:08.400Z,99.90
2019-05-06T05:29:13.156Z,99.90
2019-05-06T05:34:22.456Z,99.90
2019-05-06T05:39:27.551Z,99.90
2019-05-06T05:44:37.665Z,99.90
2019-05-06T05:50:02.758Z,99.90
2019-05-06T05:55:06.622Z,99.90
2019-05-06T06:00:12.960Z,99.90
2019-05-06T06:05:17.847Z,99.90
2019-05-06T06:10:33.206Z,99.90
2019-05-06T06:15:57.607Z,99.90
2019-05-06T06:21:36.781Z,99.90
2019-05-06T06:26:42.959Z,99.90
2019-05-06T06:32:24.862Z,99.90
2019-05-06T06:37:54.569Z,99.90
2019-05-06T06:43:03.865Z,99.90
2019-05-06T06:48:08.654Z,99.90
2019-05-06T06:53:13.333Z,99.90
2019-05-06T06:58:24.497Z,99.90
2019-05-06T07:03:33.816Z,99.90
2019-05-06T07:08:38.470Z,99.90
2019-05-06T07:13:53.074Z,99.90
2019-05-06T07:18:57.800Z,99.90
2019-05-06T07:24:04.728Z,99.90
2019-05-06T07:29:15.258Z,99.90
2019-05-06T07:34:17.134Z,99.90
2019-05-06T07:39:24.066Z,99.90
2019-05-06T07:44:52.847Z,99.90
2019-05-06T07:49:56.429Z,99.30
2019-05-06T07:55:02.541Z,99.90
2019-05-06T08:00:07.540Z,99.90
2019-05-06T08:06:22.672Z,98.60
2019-05-06T08:11:49.187Z,99.20
2019-05-06T08:17:03.090Z,99.50
2019-05-06T08:22:12.025Z,94.80
2019-05-06T08:27:16.706Z,95.80
2019-05-06T08:32:22.776Z,93.30
2019-05-06T08:37:32.429Z,95.20
2019-05-06T08:42:37.319Z,94.50
2019-05-06T08:47:42.503Z,93.30
2019-05-06T08:52:58.613Z,93.90
2019-05-06T08:58:03.205Z,92.60
2019-05-06T09:03:07.803Z,90.90
2019-05-06T09:08:13.829Z,91.30
2019-05-06T09:13:18.412Z,91.70
2019-05-06T09:18:24.117Z,88.90
2019-05-06T09:23:32.718Z,90.00
2019-05-06T09:28:53.084Z,90.20
2019-05-06T09:34:03.036Z,87.20
2019-05-06T09:39:08.079Z,89.20
2019-05-06T09:44:12.666Z,87.50
2019-05-06T09:49:22.901Z,87.70
2019-05-06T09:54:35.249Z,88.10
2019-05-06T09:59:42.040Z,89.60
2019-05-06T10:04:46.380Z,90.50
2019-05-06T10:09:52.591Z,87.50
2019-05-06T10:14:57.451Z,81.80
2019-05-06T10:20:02.872Z,85.80
2019-05-06T10:25:07.927Z,85.30
2019-05-06T10:30:13.051Z,85.00
2019-05-06T10:35:18.904Z,81.90
2019-05-06T10:40:29.447Z,81.50
2019-05-06T10:45:34.161Z,79.70
2019-05-06T10:50:43.968Z,84.50
2019-05-06T10:55:54.419Z,80.90
2019-05-06T11:01:26.104Z,84.50
2019-05-06T11:06:33.638Z,77.70
2019-05-06T11:11:38.979Z,77.50
2019-05-06T11:16:44.608Z,76.50
2019-05-06T11:21:49.267Z,76.80
2019-05-06T11:26:54.129Z,75.40
2019-05-06T11:32:23.880Z,76.10
2019-05-06T11:37:57.840Z,74.80
2019-05-06T11:43:02.423Z,72.10
2019-05-06T11:48:06.999Z,76.50
2019-05-06T11:53:12.526Z,72.20
2019-05-06T11:58:35.367Z,70.80
2019-05-06T12:03:40.042Z,72.60
2019-05-06T12:08:44.679Z,75.80
2019-05-06T12:13:49.251Z,75.70
2019-05-06T12:18:53.823Z,74.20
2019-05-06T12:23:58.383Z,71.90
2019-05-06T12:29:03.002Z,71.60
2019-05-06T12:34:07.671Z,74.60
2019-05-06T12:39:22.426Z,75.50
2019-05-06T12:44:26.858Z,71.80
2019-05-06T12:49:32.583Z,71.70
2019-05-06T12:54:37.441Z,71.40
2019-05-06T12:59:42.578Z,71.50
2019-05-06T13:04:56.016Z,72.50
2019-05-06T13:09:54.898Z,72.00
2019-05-06T13:14:59.502Z,72.50
2019-05-06T13:20:04.661Z,69.40
2019-05-06T13:25:09.391Z,70.80
2019-05-06T13:30:14.481Z,74.40
2019-05-06T13:35:19.121Z,70.80
2019-05-06T13:40:26.883Z,75.70
2019-05-06T13:45:32.502Z,70.80
2019-05-06T13:50:39.155Z,70.80
2019-05-06T13:55:43.774Z,68.70
2019-05-06T14:00:49.019Z,70.80
2019-05-06T14:05:53.618Z,68.00
2019-05-06T14:11:00.071Z,67.20
2019-05-06T14:16:04.943Z,69.60
2019-05-06T14:21:09.519Z,70.40
2019-05-06T14:26:29.338Z,68.20
2019-05-06T14:31:37.244Z,66.30
2019-05-06T14:36:43.345Z,65.60
2019-05-06T14:41:53.265Z,67.20
2019-05-06T14:47:19.227Z,66.50
2019-05-06T14:52:23.838Z,72.50
2019-05-06T14:57:28.499Z,75.70
2019-05-06T15:02:33.723Z,77.70
2019-05-06T15:07:38.642Z,77.40
2019-05-06T15:12:43.258Z,80.40
2019-05-06T15:17:47.851Z,79.40
2019-05-06T15:22:53.044Z,80.80
2019-05-06T15:27:57.750Z,78.30
2019-05-06T15:33:02.563Z,75.20
2019-05-06T15:38:13.454Z,75.80
2019-05-06T15:43:18.309Z,76.90
2019-05-06T15:48:25.632Z,78.10
2019-05-06T15:53:32.681Z,78.40
2019-05-06T15:58:42.489Z,77.70
2019-05-06T16:03:47.648Z,78.00
2019-05-06T16:08:52.730Z,78.50
2019-05-06T16:13:57.407Z,79.50
2019-05-06T16:19:04.065Z,77.80
2019-05-06T16:24:15.879Z,79.20
2019-05-06T16:29:37.082Z,78.40
2019-05-06T16:34:43.068Z,80.60
2019-05-06T16:39:47.880Z,82.10
2019-05-06T16:44:54.483Z,78.80
2019-05-06T16:50:03.034Z,80.10
2019-05-06T16:55:16.455Z,79.10
2019-05-06T17:00:23.703Z,79.80
2019-05-06T17:06:01.062Z,81.30
2019-05-06T17:11:05.767Z,83.20
2019-05-06T17:16:13.697Z,84.20
2019-05-06T17:21:22.100Z,83.50
2019-05-06T17:26:26.459Z,84.10
2019-05-06T17:31:38.096Z,86.40
2019-05-06T17:36:42.822Z,88.60
2019-05-06T17:41:49.085Z,88.30
2019-05-06T17:47:19.883Z,89.00
2019-05-06T17:52:24.474Z,90.40
2019-05-06T17:57:29.098Z,91.30
2019-05-06T18:02:33.691Z,92.10
2019-05-06T18:07:38.595Z,92.40
2019-05-06T18:12:43.181Z,93.40
2019-05-06T18:17:47.752Z,93.40
2019-05-06T18:22:52.826Z,94.10
2019-05-06T18:27:57.838Z,94.30
2019-05-06T18:33:02.519Z,94.80
2019-05-06T18:38:07.116Z,94.60
2019-05-06T18:43:12.731Z,95.30
2019-05-06T18:48:17.463Z,94.90
2019-05-06T18:53:22.668Z,93.90
2019-05-06T18:58:29.199Z,94.70
2019-05-06T19:03:49.639Z,95.60
2019-05-06T19:09:02.562Z,95.00
2019-05-06T19:14:08.932Z,96.20
2019-05-06T19:19:13.490Z,96.40
2019-05-06T19:24:18.062Z,96.90
2019-05-06T19:29:23.245Z,97.80
2019-05-06T19:34:28.258Z,97.90
2019-05-06T19:39:34.091Z,99.00
2019-05-06T19:44:39.154Z,99.60
2019-05-06T19:49:49.331Z,99.40
2019-05-06T19:54:54.411Z,99.60
2019-05-06T20:00:03.250Z,99.90
2019-05-06T20:05:17.756Z,99.90
2019-05-06T20:10:32.748Z,99.90
2019-05-06T20:15:39.083Z,99.90
2019-05-06T20:20:43.667Z,99.90
2019-05-06T20:25:48.432Z,99.90
2019-05-06T20:30:54.046Z,99.90
2019-05-06T20:35:58.615Z,99.90
2019-05-06T20:41:03.389Z,99.90
2019-05-06T20:46:08.190Z,99.90
2019-05-06T20:51:12.750Z,99.90
2019-05-06T20:56:17.290Z,99.90
2019-05-06T21:01:21.927Z,99.90
2019-05-06T21:06:26.760Z,99.90
2019-05-06T21:11:33.240Z,99.90
2019-05-06T21:16:39.579Z,99.90
2019-05-06T21:21:44.155Z,99.90
2019-05-06T21:26:48.813Z,99.90
2019-05-06T21:31:53.439Z,99.90
2019-05-06T21:36:58.263Z,99.90
2019-05-06T21:42:03.929Z,99.90
2019-05-06T21:47:09.488Z,99.90
2019-05-06T21:52:15.038Z,99.90
2019-05-06T21:57:21.687Z,99.90
2019-05-06T22:02:27.020Z,99.90
2019-05-06T22:07:35.637Z,99.90
2019-05-06T22:12:39.803Z,99.90
2019-05-06T22:17:44.452Z,99.90
2019-05-06T22:22:49.111Z,99.90
2019-05-06T22:27:53.682Z,99.90
2019-05-06T22:32:58.226Z,99.90
2019-05-06T22:38:02.950Z,99.90
2019-05-06T22:43:07.514Z,99.90
2019-05-06T22:48:12.164Z,99.90
2019-05-06T22:53:16.715Z,99.90
2019-05-06T22:58:22.765Z,99.90
2019-05-06T23:03:28.051Z,99.90
2019-05-06T23:08:32.870Z,99.90
2019-05-06T23:13:37.443Z,99.90
2019-05-06T23:18:42.932Z,99.90
2019-05-06T23:23:48.470Z,99.90
2019-05-06T23:28:53.186Z,99.90
2019-05-06T23:33:58.723Z,99.90
2019-05-06T23:39:57.998Z,99.90
2019-05-06T23:45:38.891Z,99.90
2019-05-06T23:51:22.188Z,99.90
2019-05-06T23:56:44.001Z,99.90
